sensor_id;sensor_type;location;lat;lon;timestamp;P1;durP1;ratioP1;P2;durP2;ratioP2
1128;SDS011;553;51.038;7.216;2023-04-03T00:00:35;4.90;;;4.40;;
1128;SDS011;553;51.038;7.216;2023-04-03T00:03:02;4.93;;;4.22;;
1128;SDS011;553;51.038;7.216;2023-04-03T00:05:29;4.80;;;3.75;;
1128;SDS011;553;51.038;7.216;2023-04-03T00:07:56;8.95;;;5.00;;
1128;SDS011;553;51.038;7.216;2023-04-03T00:10:22;7.43;;;4.70;;
1128;SDS011;553;51.038;7.216;2023-04-03T00:12:49;5.93;;;4.53;;
1128;SDS011;553;51.038;7.216;2023-04-03T00:15:16;8.50;;;4.47;;
1128;SDS011;553;51.038;7.216;2023-04-03T00:17:43;5.68;;;4.35;;
1128;SDS011;553;51.038;7.216;2023-04-03T00:20:09;4.83;;;4.27;;
1128;SDS011;553;51.038;7.216;2023-04-03T00:22:36;6.13;;;4.30;;
1128;SDS011;553;51.038;7.216;2023-04-03T00:25:03;7.18;;;4.50;;
1128;SDS011;553;51.038;7.216;2023-04-03T00:27:30;6.43;;;4.90;;
1128;SDS011;553;51.038;7.216;2023-04-03T00:29:57;7.23;;;4.10;;
1128;SDS011;553;51.038;7.216;2023-04-03T00:32:24;6.55;;;5.05;;
1128;SDS011;553;51.038;7.216;2023-04-03T00:34:51;6.00;;;4.70;;
1128;SDS011;553;51.038;7.216;2023-04-03T00:37:17;6.07;;;4.60;;
1128;SDS011;553;51.038;7.216;2023-04-03T00:39:44;6.97;;;5.30;;
1128;SDS011;553;51.038;7.216;2023-04-03T00:42:11;7.43;;;4.47;;
1128;SDS011;553;51.038;7.216;2023-04-03T00:47:06;4.95;;;4.45;;
1128;SDS011;553;51.038;7.216;2023-04-03T00:49:35;5.97;;;4.50;;
1128;SDS011;553;51.038;7.216;2023-04-03T00:52:03;5.97;;;4.80;;
1128;SDS011;553;51.038;7.216;2023-04-03T00:54:32;6.33;;;4.97;;
1128;SDS011;553;51.038;7.216;2023-04-03T00:57:02;6.93;;;4.75;;
1128;SDS011;553;51.038;7.216;2023-04-03T00:59:32;9.33;;;4.60;;
1128;SDS011;553;51.038;7.216;2023-04-03T01:02:02;5.03;;;4.40;;
1128;SDS011;553;51.038;7.216;2023-04-03T01:04:37;5.28;;;4.60;;
1128;SDS011;553;51.038;7.216;2023-04-03T01:07:11;4.63;;;4.20;;
1128;SDS011;553;51.038;7.216;2023-04-03T01:09:44;5.90;;;4.82;;
1128;SDS011;553;51.038;7.216;2023-04-03T01:14:52;5.97;;;4.13;;
1128;SDS011;553;51.038;7.216;2023-04-03T01:17:28;5.77;;;4.80;;
1128;SDS011;553;51.038;7.216;2023-04-03T01:20:07;5.43;;;4.57;;
1128;SDS011;553;51.038;7.216;2023-04-03T01:25:42;5.90;;;4.30;;
1128;SDS011;553;51.038;7.216;2023-04-03T01:28:20;5.07;;;4.57;;
1128;SDS011;553;51.038;7.216;2023-04-03T01:30:49;7.88;;;4.88;;
1128;SDS011;553;51.038;7.216;2023-04-03T01:33:26;5.05;;;4.63;;
1128;SDS011;553;51.038;7.216;2023-04-03T01:35:53;5.25;;;4.40;;
1128;SDS011;553;51.038;7.216;2023-04-03T01:38:20;5.70;;;4.37;;
1128;SDS011;553;51.038;7.216;2023-04-03T01:40:47;6.38;;;4.50;;
1128;SDS011;553;51.038;7.216;2023-04-03T01:43:14;4.30;;;3.90;;
1128;SDS011;553;51.038;7.216;2023-04-03T01:45:41;5.75;;;4.35;;
1128;SDS011;553;51.038;7.216;2023-04-03T01:48:08;3.95;;;3.60;;
1128;SDS011;553;51.038;7.216;2023-04-03T01:50:35;4.80;;;4.00;;
1128;SDS011;553;51.038;7.216;2023-04-03T01:53:03;5.60;;;4.03;;
1128;SDS011;553;51.038;7.216;2023-04-03T01:55:30;6.47;;;4.47;;
1128;SDS011;553;51.038;7.216;2023-04-03T01:57:57;5.40;;;4.55;;
1128;SDS011;553;51.038;7.216;2023-04-03T02:00:23;7.25;;;4.80;;
1128;SDS011;553;51.038;7.216;2023-04-03T02:02:50;6.13;;;4.20;;
1128;SDS011;553;51.038;7.216;2023-04-03T02:05:17;7.25;;;4.43;;
1128;SDS011;553;51.038;7.216;2023-04-03T02:07:44;4.90;;;4.20;;
1128;SDS011;553;51.038;7.216;2023-04-03T02:10:12;4.40;;;3.67;;
1128;SDS011;553;51.038;7.216;2023-04-03T02:12:40;8.18;;;4.78;;
1128;SDS011;553;51.038;7.216;2023-04-03T02:15:07;5.47;;;4.10;;
1128;SDS011;553;51.038;7.216;2023-04-03T02:17:34;5.80;;;4.75;;
1128;SDS011;553;51.038;7.216;2023-04-03T02:20:02;5.43;;;4.17;;
1128;SDS011;553;51.038;7.216;2023-04-03T02:22:31;5.45;;;4.25;;
1128;SDS011;553;51.038;7.216;2023-04-03T02:24:58;8.90;;;4.50;;
1128;SDS011;553;51.038;7.216;2023-04-03T02:27:25;5.40;;;4.60;;
1128;SDS011;553;51.038;7.216;2023-04-03T02:29:52;6.25;;;5.13;;
1128;SDS011;553;51.038;7.216;2023-04-03T02:32:19;6.20;;;4.70;;
1128;SDS011;553;51.038;7.216;2023-04-03T02:34:46;7.57;;;4.65;;
1128;SDS011;553;51.038;7.216;2023-04-03T02:37:13;7.88;;;4.68;;
1128;SDS011;553;51.038;7.216;2023-04-03T02:39:43;5.25;;;3.90;;
1128;SDS011;553;51.038;7.216;2023-04-03T02:42:10;6.60;;;4.65;;
1128;SDS011;553;51.038;7.216;2023-04-03T02:44:37;8.32;;;5.65;;
1128;SDS011;553;51.038;7.216;2023-04-03T02:47:04;6.60;;;5.05;;
1128;SDS011;553;51.038;7.216;2023-04-03T02:49:32;6.03;;;4.38;;
1128;SDS011;553;51.038;7.216;2023-04-03T02:51:58;5.20;;;3.72;;
1128;SDS011;553;51.038;7.216;2023-04-03T02:54:25;5.95;;;3.47;;
1128;SDS011;553;51.038;7.216;2023-04-03T02:56:58;6.85;;;3.58;;
1128;SDS011;553;51.038;7.216;2023-04-03T02:59:25;5.95;;;3.28;;
1128;SDS011;553;51.038;7.216;2023-04-03T03:01:52;7.18;;;4.07;;
1128;SDS011;553;51.038;7.216;2023-04-03T03:04:19;9.93;;;4.00;;
1128;SDS011;553;51.038;7.216;2023-04-03T03:06:46;5.00;;;3.33;;
1128;SDS011;553;51.038;7.216;2023-04-03T03:09:13;5.82;;;2.95;;
1128;SDS011;553;51.038;7.216;2023-04-03T03:11:41;3.20;;;2.72;;
1128;SDS011;553;51.038;7.216;2023-04-03T03:14:08;5.57;;;2.85;;
1128;SDS011;553;51.038;7.216;2023-04-03T03:16:35;8.57;;;3.15;;
1128;SDS011;553;51.038;7.216;2023-04-03T03:19:02;6.00;;;3.10;;
1128;SDS011;553;51.038;7.216;2023-04-03T03:21:29;8.73;;;3.05;;
1128;SDS011;553;51.038;7.216;2023-04-03T03:23:56;5.60;;;3.83;;
1128;SDS011;553;51.038;7.216;2023-04-03T03:26:22;7.60;;;3.50;;
1128;SDS011;553;51.038;7.216;2023-04-03T03:28:49;5.70;;;4.20;;
1128;SDS011;553;51.038;7.216;2023-04-03T03:31:16;5.07;;;3.70;;
1128;SDS011;553;51.038;7.216;2023-04-03T03:33:43;5.88;;;3.90;;
1128;SDS011;553;51.038;7.216;2023-04-03T03:36:10;5.22;;;3.17;;
1128;SDS011;553;51.038;7.216;2023-04-03T03:38:37;7.68;;;3.40;;
1128;SDS011;553;51.038;7.216;2023-04-03T03:41:04;4.28;;;2.67;;
1128;SDS011;553;51.038;7.216;2023-04-03T03:43:32;5.35;;;3.05;;
1128;SDS011;553;51.038;7.216;2023-04-03T03:45:59;7.43;;;2.80;;
1128;SDS011;553;51.038;7.216;2023-04-03T03:48:27;5.00;;;2.70;;
1128;SDS011;553;51.038;7.216;2023-04-03T03:50:53;4.78;;;2.55;;
1128;SDS011;553;51.038;7.216;2023-04-03T03:53:23;7.43;;;3.00;;
1128;SDS011;553;51.038;7.216;2023-04-03T03:55:54;4.65;;;3.78;;
1128;SDS011;553;51.038;7.216;2023-04-03T03:58:23;4.82;;;2.60;;
1128;SDS011;553;51.038;7.216;2023-04-03T04:00:51;5.82;;;3.05;;
1128;SDS011;553;51.038;7.216;2023-04-03T04:03:18;5.70;;;3.05;;
1128;SDS011;553;51.038;7.216;2023-04-03T04:05:47;4.95;;;2.95;;
1128;SDS011;553;51.038;7.216;2023-04-03T04:08:14;4.90;;;2.75;;
1128;SDS011;553;51.038;7.216;2023-04-03T04:10:43;4.97;;;2.50;;
1128;SDS011;553;51.038;7.216;2023-04-03T04:13:11;3.30;;;2.72;;
1128;SDS011;553;51.038;7.216;2023-04-03T04:15:38;3.03;;;2.72;;
1128;SDS011;553;51.038;7.216;2023-04-03T04:18:06;5.03;;;2.70;;
1128;SDS011;553;51.038;7.216;2023-04-03T04:20:33;5.05;;;3.05;;
1128;SDS011;553;51.038;7.216;2023-04-03T04:23:00;5.40;;;2.60;;
1128;SDS011;553;51.038;7.216;2023-04-03T04:25:27;3.88;;;2.72;;
1128;SDS011;553;51.038;7.216;2023-04-03T04:27:54;4.68;;;2.10;;
1128;SDS011;553;51.038;7.216;2023-04-03T04:30:21;3.63;;;2.75;;
1128;SDS011;553;51.038;7.216;2023-04-03T04:32:49;8.63;;;3.20;;
1128;SDS011;553;51.038;7.216;2023-04-03T04:35:16;6.78;;;3.22;;
1128;SDS011;553;51.038;7.216;2023-04-03T04:37:46;5.07;;;2.60;;
1128;SDS011;553;51.038;7.216;2023-04-03T04:40:13;3.45;;;2.63;;
1128;SDS011;553;51.038;7.216;2023-04-03T04:42:40;4.35;;;2.72;;
1128;SDS011;553;51.038;7.216;2023-04-03T04:45:07;3.00;;;2.33;;
1128;SDS011;553;51.038;7.216;2023-04-03T04:47:36;7.05;;;2.83;;
1128;SDS011;553;51.038;7.216;2023-04-03T04:50:03;5.38;;;2.53;;
1128;SDS011;553;51.038;7.216;2023-04-03T04:52:31;9.65;;;2.50;;
1128;SDS011;553;51.038;7.216;2023-04-03T04:54:58;4.63;;;2.40;;
1128;SDS011;553;51.038;7.216;2023-04-03T04:57:25;5.40;;;2.80;;
1128;SDS011;553;51.038;7.216;2023-04-03T04:59:55;4.32;;;2.92;;
1128;SDS011;553;51.038;7.216;2023-04-03T05:02:22;5.60;;;2.70;;
1128;SDS011;553;51.038;7.216;2023-04-03T05:04:49;3.92;;;2.30;;
1128;SDS011;553;51.038;7.216;2023-04-03T05:07:20;5.30;;;2.60;;
1128;SDS011;553;51.038;7.216;2023-04-03T05:09:47;4.40;;;2.67;;
1128;SDS011;553;51.038;7.216;2023-04-03T05:12:16;5.00;;;3.33;;
1128;SDS011;553;51.038;7.216;2023-04-03T05:14:50;5.35;;;3.08;;
1128;SDS011;553;51.038;7.216;2023-04-03T05:17:17;6.07;;;2.95;;
1128;SDS011;553;51.038;7.216;2023-04-03T05:19:48;4.63;;;2.92;;
1128;SDS011;553;51.038;7.216;2023-04-03T05:22:19;6.82;;;2.92;;
1128;SDS011;553;51.038;7.216;2023-04-03T05:24:46;7.03;;;2.80;;
1128;SDS011;553;51.038;7.216;2023-04-03T05:27:14;10.07;;;3.80;;
1128;SDS011;553;51.038;7.216;2023-04-03T05:29:44;6.13;;;3.53;;
1128;SDS011;553;51.038;7.216;2023-04-03T05:32:16;6.15;;;2.63;;
1128;SDS011;553;51.038;7.216;2023-04-03T05:34:46;4.90;;;3.05;;
1128;SDS011;553;51.038;7.216;2023-04-03T05:37:12;3.88;;;2.40;;
1128;SDS011;553;51.038;7.216;2023-04-03T05:39:39;3.92;;;2.60;;
1128;SDS011;553;51.038;7.216;2023-04-03T05:42:08;5.20;;;2.45;;
1128;SDS011;553;51.038;7.216;2023-04-03T05:44:35;5.25;;;2.50;;
1128;SDS011;553;51.038;7.216;2023-04-03T05:47:03;7.40;;;2.40;;
1128;SDS011;553;51.038;7.216;2023-04-03T05:49:30;5.18;;;3.05;;
1128;SDS011;553;51.038;7.216;2023-04-03T05:51:57;5.13;;;2.80;;
1128;SDS011;553;51.038;7.216;2023-04-03T05:54:28;6.85;;;2.47;;
1128;SDS011;553;51.038;7.216;2023-04-03T05:57:22;4.57;;;2.40;;
1128;SDS011;553;51.038;7.216;2023-04-03T05:59:50;4.20;;;2.95;;
1128;SDS011;553;51.038;7.216;2023-04-03T06:02:19;6.85;;;2.83;;
1128;SDS011;553;51.038;7.216;2023-04-03T06:04:48;3.92;;;2.03;;
1128;SDS011;553;51.038;7.216;2023-04-03T06:07:17;5.53;;;3.08;;
1128;SDS011;553;51.038;7.216;2023-04-03T06:09:49;3.10;;;1.95;;
1128;SDS011;553;51.038;7.216;2023-04-03T06:12:17;3.90;;;2.23;;
1128;SDS011;553;51.038;7.216;2023-04-03T06:14:45;3.38;;;2.33;;
1128;SDS011;553;51.038;7.216;2023-04-03T06:17:13;2.15;;;1.55;;
1128;SDS011;553;51.038;7.216;2023-04-03T06:19:41;4.13;;;2.80;;
1128;SDS011;553;51.038;7.216;2023-04-03T06:22:08;5.20;;;2.43;;
1128;SDS011;553;51.038;7.216;2023-04-03T06:24:35;3.93;;;1.80;;
1128;SDS011;553;51.038;7.216;2023-04-03T06:27:02;4.30;;;2.03;;
1128;SDS011;553;51.038;7.216;2023-04-03T06:29:29;6.33;;;2.10;;
1128;SDS011;553;51.038;7.216;2023-04-03T06:31:56;3.50;;;1.57;;
1128;SDS011;553;51.038;7.216;2023-04-03T06:34:23;6.70;;;2.57;;
1128;SDS011;553;51.038;7.216;2023-04-03T06:36:49;3.73;;;2.17;;
1128;SDS011;553;51.038;7.216;2023-04-03T06:39:18;4.80;;;2.27;;
1128;SDS011;553;51.038;7.216;2023-04-03T06:41:48;4.63;;;2.20;;
1128;SDS011;553;51.038;7.216;2023-04-03T06:44:17;5.20;;;2.37;;
1128;SDS011;553;51.038;7.216;2023-04-03T06:46:44;7.63;;;2.30;;
1128;SDS011;553;51.038;7.216;2023-04-03T06:49:12;3.93;;;2.00;;
1128;SDS011;553;51.038;7.216;2023-04-03T06:51:39;3.87;;;1.73;;
1128;SDS011;553;51.038;7.216;2023-04-03T06:54:06;5.20;;;2.13;;
1128;SDS011;553;51.038;7.216;2023-04-03T06:56:34;6.30;;;2.50;;
1128;SDS011;553;51.038;7.216;2023-04-03T06:59:02;6.63;;;1.97;;
1128;SDS011;553;51.038;7.216;2023-04-03T07:01:29;4.00;;;2.13;;
1128;SDS011;553;51.038;7.216;2023-04-03T07:03:57;3.43;;;1.80;;
1128;SDS011;553;51.038;7.216;2023-04-03T07:06:24;6.90;;;1.90;;
1128;SDS011;553;51.038;7.216;2023-04-03T07:08:53;3.00;;;1.47;;
1128;SDS011;553;51.038;7.216;2023-04-03T07:11:21;4.00;;;1.70;;
1128;SDS011;553;51.038;7.216;2023-04-03T07:13:48;3.10;;;1.67;;
1128;SDS011;553;51.038;7.216;2023-04-03T07:16:15;5.13;;;1.60;;
1128;SDS011;553;51.038;7.216;2023-04-03T07:18:42;5.93;;;1.73;;
1128;SDS011;553;51.038;7.216;2023-04-03T07:21:09;4.67;;;2.10;;
1128;SDS011;553;51.038;7.216;2023-04-03T07:23:36;7.30;;;1.53;;
1128;SDS011;553;51.038;7.216;2023-04-03T07:26:03;6.27;;;2.37;;
1128;SDS011;553;51.038;7.216;2023-04-03T07:28:30;4.90;;;2.17;;
1128;SDS011;553;51.038;7.216;2023-04-03T07:31:01;5.67;;;2.03;;
1128;SDS011;553;51.038;7.216;2023-04-03T07:33:34;4.60;;;2.17;;
1128;SDS011;553;51.038;7.216;2023-04-03T07:36:03;4.30;;;2.90;;
1128;SDS011;553;51.038;7.216;2023-04-03T07:38:33;3.03;;;1.20;;
1128;SDS011;553;51.038;7.216;2023-04-03T07:41:01;6.67;;;2.00;;
1128;SDS011;553;51.038;7.216;2023-04-03T07:43:29;2.33;;;1.10;;
1128;SDS011;553;51.038;7.216;2023-04-03T07:45:56;4.03;;;1.60;;
1128;SDS011;553;51.038;7.216;2023-04-03T07:48:24;5.60;;;1.40;;
1128;SDS011;553;51.038;7.216;2023-04-03T07:50:51;3.77;;;1.40;;
1128;SDS011;553;51.038;7.216;2023-04-03T07:53:18;5.80;;;1.60;;
1128;SDS011;553;51.038;7.216;2023-04-03T07:55:46;2.00;;;1.47;;
1128;SDS011;553;51.038;7.216;2023-04-03T07:58:14;4.43;;;1.37;;
1128;SDS011;553;51.038;7.216;2023-04-03T08:00:42;6.73;;;1.60;;
1128;SDS011;553;51.038;7.216;2023-04-03T08:03:09;7.03;;;1.70;;
1128;SDS011;553;51.038;7.216;2023-04-03T08:05:41;3.97;;;1.60;;
1128;SDS011;553;51.038;7.216;2023-04-03T08:08:09;3.43;;;1.40;;
1128;SDS011;553;51.038;7.216;2023-04-03T08:10:38;3.93;;;1.20;;
1128;SDS011;553;51.038;7.216;2023-04-03T08:13:05;3.20;;;1.60;;
1128;SDS011;553;51.038;7.216;2023-04-03T08:15:31;2.93;;;1.40;;
1128;SDS011;553;51.038;7.216;2023-04-03T08:17:58;3.07;;;1.40;;
1128;SDS011;553;51.038;7.216;2023-04-03T08:20:27;4.23;;;1.43;;
1128;SDS011;553;51.038;7.216;2023-04-03T08:22:54;3.60;;;1.23;;
1128;SDS011;553;51.038;7.216;2023-04-03T08:25:21;4.03;;;1.30;;
1128;SDS011;553;51.038;7.216;2023-04-03T08:27:48;4.47;;;1.07;;
1128;SDS011;553;51.038;7.216;2023-04-03T08:30:15;2.13;;;0.60;;
1128;SDS011;553;51.038;7.216;2023-04-03T08:32:42;5.23;;;0.97;;
1128;SDS011;553;51.038;7.216;2023-04-03T08:35:10;2.27;;;0.67;;
1128;SDS011;553;51.038;7.216;2023-04-03T08:37:37;1.97;;;0.50;;
1128;SDS011;553;51.038;7.216;2023-04-03T08:40:05;1.33;;;0.83;;
1128;SDS011;553;51.038;7.216;2023-04-03T08:48:04;1.20;;;0.60;;
1128;SDS011;553;51.038;7.216;2023-04-03T08:50:34;2.10;;;0.50;;
1128;SDS011;553;51.038;7.216;2023-04-03T08:53:05;3.10;;;0.60;;
1128;SDS011;553;51.038;7.216;2023-04-03T08:55:38;2.60;;;0.90;;
1128;SDS011;553;51.038;7.216;2023-04-03T08:58:16;2.40;;;1.10;;
1128;SDS011;553;51.038;7.216;2023-04-03T09:03:38;3.03;;;0.90;;
1128;SDS011;553;51.038;7.216;2023-04-03T09:06:11;2.20;;;1.00;;
1128;SDS011;553;51.038;7.216;2023-04-03T09:08:51;1.90;;;0.40;;
1128;SDS011;553;51.038;7.216;2023-04-03T09:11:41;3.37;;;1.27;;
1128;SDS011;553;51.038;7.216;2023-04-03T09:14:13;2.63;;;0.70;;
1128;SDS011;553;51.038;7.216;2023-04-03T09:16:57;2.63;;;1.00;;
1128;SDS011;553;51.038;7.216;2023-04-03T09:19:37;2.13;;;0.90;;
1128;SDS011;553;51.038;7.216;2023-04-03T09:22:21;1.50;;;0.90;;
1128;SDS011;553;51.038;7.216;2023-04-03T09:24:59;2.10;;;0.67;;
1128;SDS011;553;51.038;7.216;2023-04-03T09:27:30;4.67;;;1.10;;
1128;SDS011;553;51.038;7.216;2023-04-03T09:29:57;3.30;;;0.83;;
1128;SDS011;553;51.038;7.216;2023-04-03T09:32:31;4.83;;;2.40;;
1128;SDS011;553;51.038;7.216;2023-04-03T09:35:02;2.10;;;1.03;;
1128;SDS011;553;51.038;7.216;2023-04-03T09:37:48;3.67;;;1.10;;
1128;SDS011;553;51.038;7.216;2023-04-03T09:42:56;4.83;;;0.90;;
1128;SDS011;553;51.038;7.216;2023-04-03T09:45:28;3.93;;;0.80;;
1128;SDS011;553;51.038;7.216;2023-04-03T09:53:28;2.50;;;1.20;;
1128;SDS011;553;51.038;7.216;2023-04-03T09:55:58;2.93;;;1.17;;
1128;SDS011;553;51.038;7.216;2023-04-03T09:58:30;2.93;;;1.03;;
1128;SDS011;553;51.038;7.216;2023-04-03T10:03:47;4.43;;;1.20;;
1128;SDS011;553;51.038;7.216;2023-04-03T10:06:29;2.30;;;0.80;;
1128;SDS011;553;51.038;7.216;2023-04-03T10:09:00;1.27;;;0.70;;
1128;SDS011;553;51.038;7.216;2023-04-03T10:11:30;4.70;;;1.10;;
1128;SDS011;553;51.038;7.216;2023-04-03T10:13:58;1.73;;;0.90;;
1128;SDS011;553;51.038;7.216;2023-04-03T10:16:28;3.47;;;1.00;;
1128;SDS011;553;51.038;7.216;2023-04-03T10:21:40;4.80;;;1.10;;
1128;SDS011;553;51.038;7.216;2023-04-03T10:24:21;2.53;;;0.97;;
1128;SDS011;553;51.038;7.216;2023-04-03T10:27:02;1.67;;;0.90;;
1128;SDS011;553;51.038;7.216;2023-04-03T10:32:48;2.87;;;1.37;;
1128;SDS011;553;51.038;7.216;2023-04-03T10:41:04;1.27;;;0.90;;
1128;SDS011;553;51.038;7.216;2023-04-03T10:46:27;1.57;;;0.67;;
1128;SDS011;553;51.038;7.216;2023-04-03T10:49:14;2.87;;;0.70;;
1128;SDS011;553;51.038;7.216;2023-04-03T10:52:03;1.57;;;0.80;;
1128;SDS011;553;51.038;7.216;2023-04-03T10:54:39;1.97;;;0.50;;
1128;SDS011;553;51.038;7.216;2023-04-03T10:57:10;0.80;;;0.60;;
1128;SDS011;553;51.038;7.216;2023-04-03T11:04:59;1.23;;;0.53;;
1128;SDS011;553;51.038;7.216;2023-04-03T11:07:38;2.03;;;0.60;;
1128;SDS011;553;51.038;7.216;2023-04-03T11:10:12;2.77;;;0.93;;
1128;SDS011;553;51.038;7.216;2023-04-03T11:12:58;0.97;;;0.40;;
1128;SDS011;553;51.038;7.216;2023-04-03T11:15:32;2.10;;;0.60;;
1128;SDS011;553;51.038;7.216;2023-04-03T11:18:04;1.80;;;0.43;;
1128;SDS011;553;51.038;7.216;2023-04-03T11:20:38;5.00;;;0.93;;
1128;SDS011;553;51.038;7.216;2023-04-03T11:26:11;1.80;;;0.50;;
1128;SDS011;553;51.038;7.216;2023-04-03T11:28:41;3.53;;;0.53;;
1128;SDS011;553;51.038;7.216;2023-04-03T11:34:13;2.87;;;0.50;;
1128;SDS011;553;51.038;7.216;2023-04-03T11:37:03;1.47;;;0.60;;
1128;SDS011;553;51.038;7.216;2023-04-03T11:39:37;1.23;;;0.60;;
1128;SDS011;553;51.038;7.216;2023-04-03T11:45:16;1.80;;;0.47;;
1128;SDS011;553;51.038;7.216;2023-04-03T11:47:51;3.77;;;0.90;;
1128;SDS011;553;51.038;7.216;2023-04-03T11:58:03;3.53;;;1.20;;
1128;SDS011;553;51.038;7.216;2023-04-03T12:05:50;2.63;;;0.80;;
1128;SDS011;553;51.038;7.216;2023-04-03T12:13:42;2.30;;;0.83;;
1128;SDS011;553;51.038;7.216;2023-04-03T12:16:32;1.97;;;0.80;;
1128;SDS011;553;51.038;7.216;2023-04-03T12:19:34;3.33;;;0.60;;
1128;SDS011;553;51.038;7.216;2023-04-03T12:22:09;1.17;;;0.50;;
1128;SDS011;553;51.038;7.216;2023-04-03T12:24:38;2.87;;;0.60;;
1128;SDS011;553;51.038;7.216;2023-04-03T12:27:25;1.70;;;0.60;;
1128;SDS011;553;51.038;7.216;2023-04-03T12:30:04;1.87;;;0.80;;
1128;SDS011;553;51.038;7.216;2023-04-03T12:35:40;1.07;;;0.60;;
1128;SDS011;553;51.038;7.216;2023-04-03T12:43:50;4.17;;;1.10;;
1128;SDS011;553;51.038;7.216;2023-04-03T12:51:55;3.27;;;0.87;;
1128;SDS011;553;51.038;7.216;2023-04-03T12:57:12;2.40;;;0.90;;
1128;SDS011;553;51.038;7.216;2023-04-03T12:59:44;2.50;;;1.43;;
1128;SDS011;553;51.038;7.216;2023-04-03T13:02:23;1.10;;;0.60;;
1128;SDS011;553;51.038;7.216;2023-04-03T13:04:58;2.10;;;0.73;;
1128;SDS011;553;51.038;7.216;2023-04-03T13:07:34;3.30;;;1.10;;
1128;SDS011;553;51.038;7.216;2023-04-03T13:12:35;3.90;;;0.90;;
1128;SDS011;553;51.038;7.216;2023-04-03T13:15:13;3.83;;;1.20;;
1128;SDS011;553;51.038;7.216;2023-04-03T13:17:43;2.93;;;1.20;;
1128;SDS011;553;51.038;7.216;2023-04-03T13:20:29;2.73;;;0.90;;
1128;SDS011;553;51.038;7.216;2023-04-03T13:23:03;2.83;;;1.33;;
1128;SDS011;553;51.038;7.216;2023-04-03T13:25:35;1.43;;;1.17;;
1128;SDS011;553;51.038;7.216;2023-04-03T13:28:06;3.43;;;0.80;;
1128;SDS011;553;51.038;7.216;2023-04-03T13:30:40;1.63;;;0.63;;
1128;SDS011;553;51.038;7.216;2023-04-03T13:33:23;1.77;;;0.60;;
1128;SDS011;553;51.038;7.216;2023-04-03T13:39:01;3.97;;;1.00;;
1128;SDS011;553;51.038;7.216;2023-04-03T13:41:37;1.63;;;0.80;;
1128;SDS011;553;51.038;7.216;2023-04-03T13:46:49;2.00;;;0.80;;
1128;SDS011;553;51.038;7.216;2023-04-03T13:49:39;2.27;;;1.10;;
1128;SDS011;553;51.038;7.216;2023-04-03T13:54:57;1.90;;;1.00;;
1128;SDS011;553;51.038;7.216;2023-04-03T13:57:27;3.20;;;0.80;;
1128;SDS011;553;51.038;7.216;2023-04-03T13:59:54;2.90;;;1.20;;
1128;SDS011;553;51.038;7.216;2023-04-03T14:02:22;2.97;;;0.93;;
1128;SDS011;553;51.038;7.216;2023-04-03T14:04:58;1.43;;;0.70;;
1128;SDS011;553;51.038;7.216;2023-04-03T14:07:28;1.30;;;0.70;;
1128;SDS011;553;51.038;7.216;2023-04-03T14:09:57;1.50;;;1.13;;
1128;SDS011;553;51.038;7.216;2023-04-03T14:12:27;1.40;;;0.60;;
1128;SDS011;553;51.038;7.216;2023-04-03T14:15:07;1.53;;;0.87;;
1128;SDS011;553;51.038;7.216;2023-04-03T14:17:43;2.00;;;1.00;;
1128;SDS011;553;51.038;7.216;2023-04-03T14:20:14;1.93;;;1.00;;
1128;SDS011;553;51.038;7.216;2023-04-03T14:22:42;3.33;;;1.13;;
1128;SDS011;553;51.038;7.216;2023-04-03T14:25:10;1.20;;;0.70;;
1128;SDS011;553;51.038;7.216;2023-04-03T14:27:41;2.10;;;0.80;;
1128;SDS011;553;51.038;7.216;2023-04-03T14:30:14;4.20;;;1.30;;
1128;SDS011;553;51.038;7.216;2023-04-03T14:32:43;2.73;;;1.03;;
1128;SDS011;553;51.038;7.216;2023-04-03T14:35:11;2.57;;;1.20;;
1128;SDS011;553;51.038;7.216;2023-04-03T14:37:37;1.63;;;1.13;;
1128;SDS011;553;51.038;7.216;2023-04-03T14:40:04;2.50;;;1.53;;
1128;SDS011;553;51.038;7.216;2023-04-03T14:42:35;4.17;;;1.03;;
1128;SDS011;553;51.038;7.216;2023-04-03T14:45:04;1.90;;;0.80;;
1128;SDS011;553;51.038;7.216;2023-04-03T14:47:34;1.80;;;1.10;;
1128;SDS011;553;51.038;7.216;2023-04-03T14:50:07;2.53;;;0.90;;
1128;SDS011;553;51.038;7.216;2023-04-03T14:52:39;4.07;;;0.97;;
1128;SDS011;553;51.038;7.216;2023-04-03T14:55:07;4.17;;;1.40;;
1128;SDS011;553;51.038;7.216;2023-04-03T14:57:35;3.47;;;1.40;;
1128;SDS011;553;51.038;7.216;2023-04-03T15:00:04;3.43;;;1.30;;
1128;SDS011;553;51.038;7.216;2023-04-03T15:02:36;2.73;;;1.17;;
1128;SDS011;553;51.038;7.216;2023-04-03T15:05:06;2.37;;;1.10;;
1128;SDS011;553;51.038;7.216;2023-04-03T15:07:39;2.87;;;1.00;;
1128;SDS011;553;51.038;7.216;2023-04-03T15:12:45;3.13;;;1.23;;
1128;SDS011;553;51.038;7.216;2023-04-03T15:15:13;3.53;;;1.23;;
1128;SDS011;553;51.038;7.216;2023-04-03T15:17:41;1.83;;;1.10;;
1128;SDS011;553;51.038;7.216;2023-04-03T15:20:15;3.60;;;1.70;;
1128;SDS011;553;51.038;7.216;2023-04-03T15:22:45;2.33;;;1.00;;
1128;SDS011;553;51.038;7.216;2023-04-03T15:25:12;3.03;;;1.40;;
1128;SDS011;553;51.038;7.216;2023-04-03T15:27:39;2.03;;;0.97;;
1128;SDS011;553;51.038;7.216;2023-04-03T15:30:08;2.00;;;1.00;;
1128;SDS011;553;51.038;7.216;2023-04-03T15:32:39;1.73;;;0.70;;
1128;SDS011;553;51.038;7.216;2023-04-03T15:35:06;2.80;;;1.20;;
1128;SDS011;553;51.038;7.216;2023-04-03T15:37:33;3.23;;;1.23;;
1128;SDS011;553;51.038;7.216;2023-04-03T15:39:59;1.87;;;0.70;;
1128;SDS011;553;51.038;7.216;2023-04-03T15:42:27;4.27;;;1.70;;
1128;SDS011;553;51.038;7.216;2023-04-03T15:44:54;3.57;;;1.20;;
1128;SDS011;553;51.038;7.216;2023-04-03T15:47:21;6.20;;;3.03;;
1128;SDS011;553;51.038;7.216;2023-04-03T15:49:48;2.47;;;1.27;;
1128;SDS011;553;51.038;7.216;2023-04-03T15:52:15;2.60;;;1.13;;
1128;SDS011;553;51.038;7.216;2023-04-03T15:54:42;2.70;;;1.53;;
1128;SDS011;553;51.038;7.216;2023-04-03T15:57:08;3.63;;;1.40;;
1128;SDS011;553;51.038;7.216;2023-04-03T15:59:35;2.90;;;1.07;;
1128;SDS011;553;51.038;7.216;2023-04-03T16:02:03;5.43;;;2.03;;
1128;SDS011;553;51.038;7.216;2023-04-03T16:04:32;4.93;;;1.30;;
1128;SDS011;553;51.038;7.216;2023-04-03T16:07:03;2.97;;;0.97;;
1128;SDS011;553;51.038;7.216;2023-04-03T16:09:31;4.33;;;2.40;;
1128;SDS011;553;51.038;7.216;2023-04-03T16:11:59;3.97;;;0.83;;
1128;SDS011;553;51.038;7.216;2023-04-03T16:14:26;4.70;;;1.23;;
1128;SDS011;553;51.038;7.216;2023-04-03T16:16:54;3.00;;;1.17;;
1128;SDS011;553;51.038;7.216;2023-04-03T16:19:21;3.50;;;1.13;;
1128;SDS011;553;51.038;7.216;2023-04-03T16:21:52;2.30;;;0.83;;
1128;SDS011;553;51.038;7.216;2023-04-03T16:24:20;1.97;;;0.90;;
1128;SDS011;553;51.038;7.216;2023-04-03T16:26:46;2.70;;;0.80;;
1128;SDS011;553;51.038;7.216;2023-04-03T16:29:13;4.70;;;1.63;;
1128;SDS011;553;51.038;7.216;2023-04-03T16:31:40;2.63;;;1.20;;
1128;SDS011;553;51.038;7.216;2023-04-03T16:34:07;3.20;;;1.20;;
1128;SDS011;553;51.038;7.216;2023-04-03T16:36:34;2.57;;;1.13;;
1128;SDS011;553;51.038;7.216;2023-04-03T16:39:01;4.17;;;1.57;;
1128;SDS011;553;51.038;7.216;2023-04-03T16:41:28;5.17;;;1.70;;
1128;SDS011;553;51.038;7.216;2023-04-03T16:43:54;2.87;;;0.77;;
1128;SDS011;553;51.038;7.216;2023-04-03T16:46:21;2.97;;;1.10;;
1128;SDS011;553;51.038;7.216;2023-04-03T16:48:48;2.50;;;0.83;;
1128;SDS011;553;51.038;7.216;2023-04-03T16:51:15;5.13;;;1.20;;
1128;SDS011;553;51.038;7.216;2023-04-03T16:53:42;4.87;;;1.40;;
1128;SDS011;553;51.038;7.216;2023-04-03T16:56:09;3.00;;;1.17;;
1128;SDS011;553;51.038;7.216;2023-04-03T16:58:36;4.20;;;1.57;;
1128;SDS011;553;51.038;7.216;2023-04-03T17:01:10;7.47;;;2.17;;
1128;SDS011;553;51.038;7.216;2023-04-03T17:03:41;4.23;;;1.90;;
1128;SDS011;553;51.038;7.216;2023-04-03T17:06:09;3.37;;;1.20;;
1128;SDS011;553;51.038;7.216;2023-04-03T17:08:43;2.33;;;0.97;;
1128;SDS011;553;51.038;7.216;2023-04-03T17:11:24;2.17;;;0.80;;
1128;SDS011;553;51.038;7.216;2023-04-03T17:13:52;3.90;;;1.20;;
1128;SDS011;553;51.038;7.216;2023-04-03T17:16:18;3.63;;;1.67;;
1128;SDS011;553;51.038;7.216;2023-04-03T17:18:45;2.40;;;1.13;;
1128;SDS011;553;51.038;7.216;2023-04-03T17:21:13;2.47;;;1.30;;
1128;SDS011;553;51.038;7.216;2023-04-03T17:23:41;1.77;;;0.90;;
1128;SDS011;553;51.038;7.216;2023-04-03T17:26:10;4.27;;;0.80;;
1128;SDS011;553;51.038;7.216;2023-04-03T17:28:37;2.77;;;1.27;;
1128;SDS011;553;51.038;7.216;2023-04-03T17:31:05;2.20;;;1.23;;